Time;durP1;ratioP1;P1;durP2;ratioP2;P2;SDS_P1;SDS_P2;PMS_P1;PMS_P2;Temp;Humidity;BMP_temperature;BMP_pressure;BME280_temperature;BME280_humidity;BME280_pressure;Samples;Min_cycle;Max_cycle;Signal;HPM_P1;HPM_P2
2021/09/10 00:02:01;;;;;;;0.40;0.40;;;11.50;99.90;;;;;;5072808;28;20239;-82
2021/09/10 00:04:27;;;;;;;4.90;1.58;;;11.50;99.90;;;;;;5093332;28;20256;-82
2021/09/10 00:06:52;;;;;;;1.45;1.08;;;11.40;99.90;;;;;;5073433;28;20299;-82
2021/09/10 00:09:19;;;;;;;0.73;0.73;;;11.40;99.90;;;;;;5074006;28;20200;-83
2021/09/10 00:11:45;;;;;;;3.65;2.72;;;11.40;99.90;;;;;;5073717;28;20282;-82
2021/09/10 00:14:10;;;;;;;0.80;0.73;;;11.40;99.90;;;;;;5072775;28;20235;-82
2021/09/10 00:16:36;;;;;;;0.55;0.55;;;11.40;99.90;;;;;;5091982;28;20241;-82
2021/09/10 00:19:03;;;;;;;1.13;1.02;;;11.40;99.90;;;;;;5074039;28;20192;-82
2021/09/10 00:21:28;;;;;;;0.40;0.40;;;11.40;99.90;;;;;;5074723;28;20672;-82
2021/09/10 00:23:54;;;;;;;0.30;0.30;;;11.40;99.90;;;;;;5073525;28;20262;-82
2021/09/10 00:26:20;;;;;;;1.08;1.00;;;11.40;99.90;;;;;;5074737;28;20563;-82
2021/09/10 00:28:46;;;;;;;0.47;0.47;;;11.40;99.90;;;;;;5073471;28;20208;-82
2021/09/10 00:31:12;;;;;;;0.55;0.55;;;11.40;99.90;;;;;;5074852;28;20673;-82
2021/09/10 00:33:37;;;;;;;1.02;1.02;;;11.50;99.90;;;;;;5091369;28;20336;-82
2021/09/10 00:36:03;;;;;;;0.90;0.80;;;11.50;99.90;;;;;;5073531;28;20230;-81
2021/09/10 00:38:30;;;;;;;3.80;1.27;;;11.50;99.90;;;;;;5090162;28;20200;-82
2021/09/10 00:40:58;;;;;;;1.27;0.57;;;11.50;99.90;;;;;;5074704;28;20619;-81
2021/09/10 00:43:23;;;;;;;0.70;0.70;;;11.60;99.90;;;;;;5089012;28;20196;-82
2021/09/10 00:45:49;;;;;;;1.42;1.33;;;11.50;99.90;;;;;;5073289;28;20211;-82
2021/09/10 00:48:19;;;;;;;5.78;0.93;;;11.50;99.90;;;;;;5072573;28;20207;-82
2021/09/10 00:50:45;;;;;;;1.15;1.05;;;11.40;99.90;;;;;;5072247;28;20200;-82
2021/09/10 00:53:12;;;;;;;1.33;0.65;;;11.30;99.90;;;;;;5075062;28;20612;-82
2021/09/10 00:55:40;;;;;;;0.55;0.55;;;11.30;99.90;;;;;;5090064;28;20192;-82
2021/09/10 00:58:05;;;;;;;0.30;0.30;;;11.20;99.90;;;;;;5052120;28;20803;-82
2021/09/10 01:00:31;;;;;;;0.75;0.75;;;11.20;99.90;;;;;;5050191;28;20217;-83
2021/09/10 01:02:57;;;;;;;1.30;0.60;;;11.20;99.90;;;;;;5049490;28;20621;-83
2021/09/10 01:05:23;;;;;;;0.30;0.30;;;11.10;99.90;;;;;;5073117;22;20272;-74
2021/09/10 01:07:51;;;;;;;0.90;0.77;;;11.10;99.90;;;;;;5054232;28;20247;-74
2021/09/10 01:10:17;;;;;;;3.30;1.85;;;11.10;99.90;;;;;;5070906;28;20213;-74
2021/09/10 01:12:43;;;;;;;2.58;1.38;;;11.10;99.90;;;;;;5069857;28;20712;-73
2021/09/10 01:15:09;;;;;;;0.30;0.30;;;11.00;99.90;;;;;;5070812;28;20201;-73
2021/09/10 01:17:36;;;;;;;3.95;1.13;;;11.00;99.90;;;;;;5071604;28;20213;-73
2021/09/10 01:20:04;;;;;;;0.52;0.52;;;10.90;99.90;;;;;;5071890;28;20197;-74
2021/09/10 01:22:30;;;;;;;0.57;0.57;;;10.90;99.90;;;;;;5069312;28;20212;-73
2021/09/10 01:25:06;;;;;;;0.50;0.50;;;10.80;99.90;;;;;;5058993;28;20210;-73
2021/09/10 01:27:32;;;;;;;0.88;0.88;;;10.80;99.90;;;;;;5063082;28;20739;-73
2021/09/10 01:29:58;;;;;;;1.30;0.82;;;10.70;99.90;;;;;;5069188;28;20197;-73
2021/09/10 01:32:25;;;;;;;1.90;0.70;;;10.70;99.90;;;;;;5070368;28;20310;-74
2021/09/10 01:34:50;;;;;;;0.47;0.47;;;10.70;99.90;;;;;;5061788;28;20549;-73
2021/09/10 01:37:16;;;;;;;0.73;0.73;;;10.60;99.90;;;;;;5061489;28;20205;-74
2021/09/10 01:39:42;;;;;;;1.23;1.02;;;10.60;99.90;;;;;;5068916;28;20287;-74
2021/09/10 01:42:08;;;;;;;1.05;0.90;;;10.60;99.90;;;;;;5066866;28;20551;-74
2021/09/10 01:44:33;;;;;;;0.50;0.50;;;10.50;99.90;;;;;;5055149;28;20209;-73
2021/09/10 01:46:59;;;;;;;2.17;1.05;;;10.50;99.90;;;;;;5070204;28;20299;-74
2021/09/10 01:49:25;;;;;;;0.43;0.43;;;10.50;99.90;;;;;;5072266;28;20200;-73
2021/09/10 01:51:50;;;;;;;0.55;0.55;;;10.50;99.90;;;;;;5072707;28;20194;-73
2021/09/10 01:54:16;;;;;;;0.57;0.55;;;10.40;99.90;;;;;;5072800;28;20236;-73
2021/09/10 01:56:42;;;;;;;0.60;0.60;;;10.40;99.90;;;;;;5057604;28;20244;-73
2021/09/10 01:59:07;;;;;;;0.45;0.35;;;10.40;99.90;;;;;;5057160;28;20297;-73
2021/09/10 02:01:34;;;;;;;0.68;0.57;;;10.40;99.90;;;;;;5068174;28;20568;-74
2021/09/10 02:04:00;;;;;;;2.38;1.05;;;10.40;99.90;;;;;;5080106;28;20279;-72
2021/09/10 02:06:26;;;;;;;0.40;0.40;;;10.40;99.90;;;;;;5114159;28;20598;-73
2021/09/10 02:08:52;;;;;;;0.30;0.30;;;10.40;99.90;;;;;;5115985;28;20261;-72
2021/09/10 02:11:18;;;;;;;0.30;0.30;;;10.30;99.90;;;;;;5113074;28;20215;-72
2021/09/10 02:13:43;;;;;;;0.65;0.65;;;10.30;99.90;;;;;;5110756;28;20199;-73
2021/09/10 02:16:11;;;;;;;0.47;0.47;;;10.20;99.90;;;;;;5115547;28;20210;-73
2021/09/10 02:18:38;;;;;;;0.32;0.32;;;10.20;99.90;;;;;;5114196;28;20210;-73
2021/09/10 02:21:03;;;;;;;0.82;0.82;;;10.20;99.90;;;;;;5114120;28;20203;-72
2021/09/10 02:23:29;;;;;;;0.30;0.30;;;10.20;99.90;;;;;;5114025;28;20518;-73
2021/09/10 02:25:55;;;;;;;0.40;0.40;;;10.20;99.90;;;;;;5115221;28;20207;-72
2021/09/10 02:28:21;;;;;;;0.50;0.50;;;10.20;99.90;;;;;;5094529;28;20210;-72
2021/09/10 02:30:46;;;;;;;0.57;0.57;;;10.20;99.90;;;;;;5096900;28;20238;-73
2021/09/10 02:33:13;;;;;;;0.40;0.40;;;10.20;99.90;;;;;;5113943;27;20192;-73
2021/09/10 02:35:40;;;;;;;0.65;0.65;;;10.30;99.90;;;;;;5096149;28;20199;-72
2021/09/10 02:38:06;;;;;;;0.57;0.57;;;10.40;99.90;;;;;;5115069;28;20199;-73
2021/09/10 02:40:31;;;;;;;0.30;0.30;;;10.40;99.90;;;;;;5113654;28;20218;-73
2021/09/10 02:42:57;;;;;;;0.50;0.50;;;10.50;99.90;;;;;;5095428;28;20207;-72
2021/09/10 02:45:23;;;;;;;1.20;1.10;;;10.60;99.90;;;;;;5114770;28;20283;-73
2021/09/10 02:47:49;;;;;;;4.75;2.20;;;10.70;99.90;;;;;;5115042;28;20203;-73
2021/09/10 02:50:15;;;;;;;0.70;0.70;;;10.70;99.90;;;;;;5102031;28;20612;-73
2021/09/10 02:52:41;;;;;;;1.83;0.75;;;10.70;99.90;;;;;;5096570;28;20575;-73
2021/09/10 02:55:07;;;;;;;0.60;0.60;;;10.70;99.90;;;;;;5115352;28;20203;-72
2021/09/10 02:57:33;;;;;;;0.32;0.32;;;10.60;99.90;;;;;;5114247;28;20634;-73
2021/09/10 02:59:59;;;;;;;0.85;0.40;;;10.60;99.90;;;;;;5114946;28;20207;-73
2021/09/10 03:02:25;;;;;;;0.30;0.30;;;10.50;99.90;;;;;;5112578;28;20229;-73
2021/09/10 03:04:51;;;;;;;0.50;0.50;;;10.50;99.90;;;;;;5114371;27;20719;-74
2021/09/10 03:07:17;;;;;;;0.90;0.82;;;10.40;99.90;;;;;;5114254;27;20207;-73
2021/09/10 03:09:43;;;;;;;1.60;0.82;;;10.30;99.90;;;;;;5083761;28;20208;-73
2021/09/10 03:12:09;;;;;;;0.35;0.35;;;10.40;99.90;;;;;;5089638;28;20696;-73
2021/09/10 03:14:34;;;;;;;0.47;0.40;;;10.40;99.90;;;;;;5095825;28;20203;-73
2021/09/10 03:17:01;;;;;;;0.50;0.50;;;10.30;99.90;;;;;;5112954;28;20204;-73
2021/09/10 03:19:28;;;;;;;0.40;0.40;;;10.30;99.90;;;;;;5114038;28;20218;-73
2021/09/10 03:21:54;;;;;;;5.18;1.35;;;10.20;99.90;;;;;;5112844;28;20569;-72
2021/09/10 03:24:21;;;;;;;1.02;0.98;;;10.20;99.90;;;;;;5112519;28;20199;-73
2021/09/10 03:26:47;;;;;;;0.90;0.82;;;10.20;99.90;;;;;;5112786;28;20213;-73
2021/09/10 03:29:13;;;;;;;0.77;0.77;;;10.20;99.90;;;;;;5112674;28;20199;-73
2021/09/10 03:31:40;;;;;;;0.38;0.35;;;10.20;99.90;;;;;;5097012;28;20584;-73
2021/09/10 03:34:06;;;;;;;0.47;0.40;;;10.20;99.90;;;;;;5112508;28;20203;-73
2021/09/10 03:36:32;;;;;;;1.33;1.20;;;10.30;99.90;;;;;;5113828;28;20588;-72
2021/09/10 03:38:58;;;;;;;0.68;0.65;;;10.50;99.90;;;;;;5112558;28;20275;-73
2021/09/10 03:41:24;;;;;;;0.52;0.52;;;10.70;99.90;;;;;;5112460;28;20208;-73
2021/09/10 03:43:52;;;;;;;0.60;0.60;;;11.00;99.90;;;;;;5113932;28;20658;-73
2021/09/10 03:46:19;;;;;;;0.52;0.52;;;11.20;99.90;;;;;;5114052;28;20662;-73
2021/09/10 03:48:45;;;;;;;0.60;0.60;;;11.50;99.90;;;;;;5094067;28;20218;-73
2021/09/10 03:51:11;;;;;;;1.02;1.00;;;11.80;99.90;;;;;;5112478;28;20199;-72
2021/09/10 03:53:37;;;;;;;1.38;1.20;;;12.00;99.90;;;;;;5112019;28;20199;-73
2021/09/10 03:56:04;;;;;;;0.75;0.70;;;12.10;99.90;;;;;;5113511;28;20272;-73
2021/09/10 03:58:29;;;;;;;1.55;0.85;;;12.20;99.90;;;;;;5113333;28;20279;-72
2021/09/10 04:00:55;;;;;;;0.20;0.20;;;12.20;99.90;;;;;;5113382;28;20313;-73
2021/09/10 04:03:21;;;;;;;1.02;0.85;;;12.30;99.90;;;;;;5111711;28;20745;-72
2021/09/10 04:05:47;;;;;;;1.75;0.95;;;12.30;99.90;;;;;;5112907;28;20280;-72
2021/09/10 04:08:13;;;;;;;0.68;0.68;;;12.30;99.90;;;;;;5094352;28;20207;-73
2021/09/10 04:10:39;;;;;;;0.43;0.43;;;12.30;99.90;;;;;;5111745;28;20201;-72
2021/09/10 04:13:04;;;;;;;3.65;1.30;;;12.40;99.90;;;;;;5113309;28;20689;-72
2021/09/10 04:15:30;;;;;;;0.60;0.60;;;12.40;99.90;;;;;;5112756;28;20207;-73
2021/09/10 04:17:56;;;;;;;4.85;1.42;;;12.40;99.90;;;;;;5093529;28;20196;-73
2021/09/10 04:20:22;;;;;;;0.63;0.63;;;12.40;99.90;;;;;;5094528;28;20207;-73
2021/09/10 04:22:47;;;;;;;1.38;1.27;;;12.40;99.90;;;;;;5113239;28;20661;-73
2021/09/10 04:25:13;;;;;;;0.63;0.52;;;12.40;99.90;;;;;;5112950;28;20215;-73
2021/09/10 04:27:39;;;;;;;10.73;1.75;;;12.50;99.90;;;;;;5112783;28;20317;-74
2021/09/10 04:30:09;;;;;;;1.90;1.73;;;12.50;99.90;;;;;;5112793;28;20199;-73
2021/09/10 04:32:35;;;;;;;0.70;0.70;;;12.60;99.90;;;;;;5111812;28;20187;-73
2021/09/10 04:35:02;;;;;;;0.93;0.65;;;12.60;99.90;;;;;;5112999;28;20199;-73
2021/09/10 04:37:28;;;;;;;1.50;1.33;;;12.70;99.90;;;;;;5113904;27;20286;-73
2021/09/10 04:39:53;;;;;;;0.88;0.73;;;12.70;99.90;;;;;;5091781;28;20345;-74
2021/09/10 04:42:19;;;;;;;6.10;1.85;;;12.70;99.90;;;;;;5111433;28;20223;-73
2021/09/10 04:44:45;;;;;;;0.93;0.63;;;12.80;99.90;;;;;;5111332;28;20218;-73
2021/09/10 04:47:10;;;;;;;0.30;0.30;;;12.80;99.90;;;;;;5092961;28;20215;-73
2021/09/10 04:49:36;;;;;;;0.85;0.85;;;12.90;99.90;;;;;;5103900;28;20204;-73
2021/09/10 04:52:02;;;;;;;2.67;1.40;;;12.90;99.90;;;;;;5086515;28;20233;-73
2021/09/10 04:54:28;;;;;;;0.38;0.38;;;12.90;99.90;;;;;;5093386;28;20208;-73
2021/09/10 04:56:53;;;;;;;6.38;1.50;;;13.00;99.90;;;;;;5112633;28;20237;-73
2021/09/10 04:59:19;;;;;;;6.78;1.23;;;13.10;99.90;;;;;;5087204;28;20275;-73
2021/09/10 05:01:47;;;;;;;1.25;0.95;;;13.10;99.90;;;;;;5105955;28;20290;-73
2021/09/10 05:04:12;;;;;;;2.55;1.77;;;13.20;99.90;;;;;;5093969;28;20658;-73
2021/09/10 05:06:38;;;;;;;0.70;0.70;;;13.20;99.90;;;;;;5112123;28;20230;-73
2021/09/10 05:09:04;;;;;;;4.53;1.38;;;13.20;99.90;;;;;;5112478;28;20207;-73
2021/09/10 05:11:30;;;;;;;1.65;1.30;;;13.30;99.90;;;;;;5112402;28;20270;-73
2021/09/10 05:13:55;;;;;;;3.20;1.52;;;13.30;99.90;;;;;;5112333;28;20199;-71
2021/09/10 05:16:21;;;;;;;1.23;1.13;;;13.30;99.90;;;;;;5093905;28;20253;-72
2021/09/10 05:18:47;;;;;;;5.30;2.58;;;13.30;99.90;;;;;;5112438;28;20207;-71
2021/09/10 05:21:12;;;;;;;0.60;0.60;;;13.40;99.90;;;;;;5096708;28;20210;-70
2021/09/10 05:23:38;;;;;;;0.60;0.60;;;13.40;99.90;;;;;;5115807;28;20207;-71
2021/09/10 05:26:04;;;;;;;1.20;0.93;;;13.40;99.90;;;;;;5098172;28;20215;-71
2021/09/10 05:28:29;;;;;;;13.98;2.13;;;13.50;99.90;;;;;;5116040;28;20211;-70
2021/09/10 05:30:55;;;;;;;3.58;1.50;;;13.50;99.90;;;;;;5116400;28;20195;-71
2021/09/10 05:33:21;;;;;;;3.95;1.48;;;13.50;99.90;;;;;;5096450;28;20203;-71
2021/09/10 05:35:46;;;;;;;2.55;1.55;;;13.60;99.90;;;;;;5096592;28;20195;-71
2021/09/10 05:38:12;;;;;;;0.60;0.60;;;13.60;99.90;;;;;;5116233;28;20297;-71
2021/09/10 05:40:38;;;;;;;1.17;1.08;;;13.60;99.90;;;;;;5114731;28;20199;-71
2021/09/10 05:43:04;;;;;;;2.28;1.50;;;13.60;99.90;;;;;;5116165;28;20215;-71
2021/09/10 05:45:29;;;;;;;3.50;0.90;;;13.60;99.90;;;;;;5115836;28;20290;-71
2021/09/10 05:47:55;;;;;;;10.73;1.48;;;13.70;99.90;;;;;;5115947;28;20219;-71
2021/09/10 05:50:21;;;;;;;0.88;0.88;;;13.70;99.90;;;;;;5108206;28;20278;-71
2021/09/10 05:52:46;;;;;;;3.40;1.15;;;13.60;99.90;;;;;;5114468;28;20226;-71
2021/09/10 05:55:13;;;;;;;1.42;0.98;;;13.70;99.90;;;;;;5096160;28;20196;-71
2021/09/10 05:57:39;;;;;;;1.08;1.02;;;13.70;99.90;;;;;;5115492;28;20203;-71
2021/09/10 06:00:05;;;;;;;1.33;1.23;;;13.70;99.90;;;;;;5113376;28;20268;-72
2021/09/10 06:02:31;;;;;;;1.73;1.38;;;13.70;99.90;;;;;;5106260;28;20584;-71
2021/09/10 06:04:56;;;;;;;1.48;1.38;;;13.80;99.90;;;;;;5079550;28;20229;-71
2021/09/10 06:07:22;;;;;;;4.75;2.17;;;13.80;99.90;;;;;;5073415;28;20221;-73
2021/09/10 06:09:48;;;;;;;4.00;1.95;;;13.80;99.90;;;;;;5068050;28;20210;-71
2021/09/10 06:12:13;;;;;;;5.70;2.78;;;13.90;99.90;;;;;;5056089;28;20258;-72
2021/09/10 06:14:39;;;;;;;3.17;1.63;;;13.90;99.90;;;;;;5070384;28;20209;-71
2021/09/10 06:17:05;;;;;;;1.58;1.17;;;13.90;99.90;;;;;;5065268;28;20208;-71
2021/09/10 06:19:31;;;;;;;1.35;1.25;;;14.00;99.90;;;;;;5072288;28;20205;-71
2021/09/10 06:21:56;;;;;;;4.65;1.88;;;14.00;99.90;;;;;;5061079;28;20232;-71
2021/09/10 06:24:22;;;;;;;9.23;1.55;;;14.00;99.90;;;;;;5064221;28;20238;-71
2021/09/10 06:26:48;;;;;;;1.33;0.98;;;14.10;99.90;;;;;;5074704;28;20196;-71
2021/09/10 06:29:13;;;;;;;2.97;1.65;;;14.10;99.90;;;;;;5072742;28;20216;-71
2021/09/10 06:31:39;;;;;;;2.97;1.45;;;14.10;99.90;;;;;;5072425;28;20626;-72
2021/09/10 06:34:06;;;;;;;1.95;1.20;;;14.10;99.90;;;;;;5067905;28;20241;-72
2021/09/10 06:36:32;;;;;;;2.55;2.35;;;14.20;99.90;;;;;;5062319;28;20200;-71
2021/09/10 06:38:57;;;;;;;2.97;1.45;;;14.20;99.90;;;;;;5071854;28;20205;-71
2021/09/10 06:41:23;;;;;;;1.95;1.52;;;14.20;99.90;;;;;;5073294;28;20621;-72
2021/09/10 06:43:49;;;;;;;1.83;1.70;;;14.20;99.90;;;;;;5070468;28;20304;-72
2021/09/10 06:46:14;;;;;;;0.98;0.98;;;14.30;99.90;;;;;;5070944;28;20197;-72
2021/09/10 06:48:40;;;;;;;2.30;1.17;;;14.30;99.90;;;;;;5072423;28;20299;-72
2021/09/10 06:51:06;;;;;;;1.70;0.85;;;14.30;99.90;;;;;;5056954;28;20213;-72
2021/09/10 06:53:34;;;;;;;9.18;2.15;;;14.30;99.90;;;;;;5073175;28;20716;-73
2021/09/10 06:56:00;;;;;;;8.52;2.38;;;14.40;99.90;;;;;;5057038;28;20567;-72
2021/09/10 06:58:25;;;;;;;2.80;1.77;;;14.40;99.90;;;;;;5072959;28;20204;-72
2021/09/10 07:00:51;;;;;;;3.85;2.10;;;14.40;99.90;;;;;;5070092;28;20721;-72
2021/09/10 07:03:17;;;;;;;1.50;1.27;;;14.40;99.90;;;;;;5072828;28;20666;-72
2021/09/10 07:05:43;;;;;;;2.20;2.00;;;14.40;99.90;;;;;;5111868;27;20231;-72
2021/09/10 07:08:09;;;;;;;2.95;0.98;;;14.40;99.90;;;;;;5093288;28;20220;-72
2021/09/10 07:10:35;;;;;;;1.23;1.05;;;14.50;99.90;;;;;;5114099;28;20554;-72
2021/09/10 07:13:01;;;;;;;5.28;2.03;;;14.50;99.90;;;;;;5095352;28;20238;-72
2021/09/10 07:15:27;;;;;;;3.22;1.17;;;14.50;99.90;;;;;;5114081;28;20219;-73
2021/09/10 07:17:52;;;;;;;2.88;1.40;;;14.50;99.90;;;;;;5113079;28;20613;-73
2021/09/10 07:20:18;;;;;;;5.55;2.75;;;14.60;99.90;;;;;;5114244;28;20210;-73
2021/09/10 07:22:44;;;;;;;2.65;1.80;;;14.60;99.90;;;;;;5112589;28;20233;-72
2021/09/10 07:25:09;;;;;;;9.65;2.45;;;14.70;99.90;;;;;;5114204;28;20214;-71
2021/09/10 07:27:35;;;;;;;3.50;1.48;;;14.60;99.90;;;;;;5114080;28;20211;-71
2021/09/10 07:30:02;;;;;;;2.42;2.00;;;14.60;99.90;;;;;;5095808;28;20253;-71
2021/09/10 07:32:28;;;;;;;2.53;1.73;;;14.60;99.90;;;;;;5112644;28;20196;-71
2021/09/10 07:34:53;;;;;;;1.35;1.20;;;14.70;99.90;;;;;;5095878;28;20214;-71
2021/09/10 07:37:26;;;;;;;2.45;1.20;;;14.70;99.90;;;;;;5115017;27;20597;-72
2021/09/10 07:39:55;;;;;;;1.67;1.45;;;14.70;99.90;;;;;;5095392;28;20204;-72
2021/09/10 07:42:21;;;;;;;3.42;1.95;;;14.70;99.90;;;;;;5095294;28;20226;-72
2021/09/10 07:44:47;;;;;;;1.30;1.20;;;14.70;99.90;;;;;;5112163;28;20246;-72
2021/09/10 07:47:13;;;;;;;5.40;1.67;;;14.70;99.90;;;;;;5114835;27;20199;-72
2021/09/10 07:49:38;;;;;;;1.38;1.27;;;14.70;99.90;;;;;;5094020;28;20309;-72
2021/09/10 07:52:04;;;;;;;1.58;1.30;;;14.70;99.90;;;;;;5113616;28;20227;-72
2021/09/10 07:54:30;;;;;;;1.92;1.63;;;14.70;99.90;;;;;;5112053;28;20206;-72
2021/09/10 07:56:55;;;;;;;0.90;0.88;;;14.70;99.90;;;;;;5112254;28;20282;-71
2021/09/10 07:59:21;;;;;;;2.03;1.63;;;14.80;99.90;;;;;;5094984;28;20203;-72
2021/09/10 08:01:47;;;;;;;3.10;2.28;;;14.70;99.90;;;;;;5112095;28;20224;-71
2021/09/10 08:04:12;;;;;;;4.57;1.60;;;14.80;99.90;;;;;;5113219;28;20693;-73
2021/09/10 08:06:38;;;;;;;2.53;1.50;;;14.80;99.90;;;;;;5113096;28;20337;-71
2021/09/10 08:09:04;;;;;;;11.95;3.15;;;14.90;99.90;;;;;;5111343;28;20260;-72
2021/09/10 08:11:33;;;;;;;1.15;0.98;;;15.00;99.90;;;;;;5113193;28;20226;-71
2021/09/10 08:14:03;;;;;;;2.15;1.95;;;15.00;99.90;;;;;;5111914;28;20199;-71
2021/09/10 08:16:29;;;;;;;4.97;1.63;;;15.10;99.90;;;;;;5094673;28;20287;-71
2021/09/10 08:18:55;;;;;;;6.57;2.58;;;15.10;99.90;;;;;;5095009;28;20282;-71
2021/09/10 08:21:21;;;;;;;2.20;2.00;;;15.10;99.90;;;;;;5112708;27;20241;-72
2021/09/10 08:23:46;;;;;;;3.38;1.33;;;15.20;99.90;;;;;;5127887;27;20211;-71
2021/09/10 08:26:12;;;;;;;1.13;1.02;;;15.10;99.90;;;;;;5113132;28;20210;-71
2021/09/10 08:28:38;;;;;;;2.60;1.25;;;15.10;99.90;;;;;;5112852;28;20670;-71
2021/09/10 08:31:03;;;;;;;1.75;1.65;;;15.20;99.90;;;;;;5112414;28;20203;-72
2021/09/10 08:33:29;;;;;;;1.00;0.90;;;15.20;99.90;;;;;;5112732;28;20260;-72
2021/09/10 08:35:55;;;;;;;1.85;1.58;;;15.20;99.90;;;;;;5112766;28;20195;-71
2021/09/10 08:38:20;;;;;;;3.17;1.88;;;15.30;99.90;;;;;;5111216;28;20203;-71
2021/09/10 08:40:47;;;;;;;2.17;1.38;;;15.30;99.90;;;;;;5112570;28;20222;-71
2021/09/10 08:43:14;;;;;;;3.72;1.63;;;15.30;99.90;;;;;;5112609;28;20637;-71
2021/09/10 08:45:40;;;;;;;1.35;1.25;;;15.30;99.90;;;;;;5094138;28;20311;-71
2021/09/10 08:48:06;;;;;;;1.08;1.02;;;15.40;99.90;;;;;;5111313;28;20213;-71
2021/09/10 08:50:32;;;;;;;5.55;2.50;;;15.50;99.90;;;;;;5083320;28;20665;-72
2021/09/10 08:52:57;;;;;;;3.20;1.63;;;15.60;99.90;;;;;;5087682;28;20203;-72
2021/09/10 08:55:23;;;;;;;2.20;1.13;;;15.70;99.90;;;;;;5113481;28;20203;-72
2021/09/10 08:57:51;;;;;;;2.47;2.15;;;15.90;99.90;;;;;;5112322;28;20210;-71
2021/09/10 09:00:25;;;;;;;3.38;1.98;;;15.80;99.90;;;;;;5111152;28;20550;-72
2021/09/10 09:03:06;;;;;;;0.70;0.68;;;15.90;99.90;;;;;;5094114;28;20238;-72
2021/09/10 09:05:32;;;;;;;1.17;1.08;;;16.00;99.90;;;;;;5094603;28;20594;-72
2021/09/10 09:08:10;;;;;;;1.55;1.08;;;16.00;99.90;;;;;;5109850;28;20206;-72
2021/09/10 09:10:53;;;;;;;1.88;1.30;;;16.00;99.90;;;;;;5085458;28;20222;-72
2021/09/10 09:13:19;;;;;;;2.33;1.48;;;16.10;99.90;;;;;;5094152;28;20612;-72
2021/09/10 09:15:46;;;;;;;1.95;1.25;;;16.20;99.90;;;;;;5112427;28;20260;-71
2021/09/10 09:18:11;;;;;;;4.70;2.22;;;16.20;99.90;;;;;;5112509;28;20211;-71
2021/09/10 09:20:37;;;;;;;3.65;1.45;;;16.20;99.90;;;;;;5093831;28;20623;-73
2021/09/10 09:23:06;;;;;;;7.13;2.15;;;16.20;99.90;;;;;;5111204;28;20210;-72
2021/09/10 09:25:42;;;;;;;1.75;1.65;;;16.30;99.90;;;;;;5093751;28;20291;-73
2021/09/10 09:28:28;;;;;;;1.42;1.33;;;16.40;99.90;;;;;;5112368;28;20248;-73
2021/09/10 09:30:56;;;;;;;2.55;2.28;;;16.50;99.90;;;;;;5110937;28;20226;-72
2021/09/10 09:33:44;;;;;;;0.90;0.80;;;16.60;99.90;;;;;;5091592;28;20195;-73
2021/09/10 09:36:16;;;;;;;1.45;1.17;;;16.60;99.90;;;;;;5110997;28;20227;-73
2021/09/10 09:38:43;;;;;;;1.98;1.52;;;16.50;99.90;;;;;;5110417;28;20199;-73
2021/09/10 09:41:22;;;;;;;7.00;2.05;;;16.60;99.90;;;;;;5110727;28;20662;-73
2021/09/10 09:43:50;;;;;;;1.23;1.17;;;16.60;99.90;;;;;;5110709;28;20580;-73
2021/09/10 09:46:20;;;;;;;0.98;0.85;;;16.80;99.90;;;;;;5110924;28;20221;-73
2021/09/10 09:48:47;;;;;;;5.05;1.58;;;16.90;99.90;;;;;;5093910;28;20260;-73
2021/09/10 09:51:18;;;;;;;4.00;1.75;;;16.90;99.90;;;;;;5112127;28;20225;-73
2021/09/10 09:53:45;;;;;;;0.68;0.68;;;16.90;99.90;;;;;;5110390;28;20244;-73
2021/09/10 09:56:11;;;;;;;1.38;1.20;;;17.10;99.90;;;;;;5111974;28;20206;-73
2021/09/10 09:58:39;;;;;;;2.50;2.30;;;17.20;99.90;;;;;;5110602;28;20199;-73
2021/09/10 10:01:06;;;;;;;1.00;0.68;;;17.40;99.90;;;;;;5111152;28;20195;-71
2021/09/10 10:03:32;;;;;;;2.42;1.58;;;17.40;99.90;;;;;;5111545;28;20298;-71
2021/09/10 10:06:01;;;;;;;4.22;1.77;;;17.50;99.90;;;;;;5110512;28;20571;-71
2021/09/10 10:09:03;;;;;;;4.10;1.77;;;17.70;99.90;;;;;;5109996;28;20571;-71
2021/09/10 10:11:38;;;;;;;1.17;1.08;;;17.70;99.90;;;;;;5113928;28;20191;-71
2021/09/10 10:14:06;;;;;;;1.25;1.15;;;18.00;99.90;;;;;;5115474;28;20241;-71
2021/09/10 10:16:40;;;;;;;2.10;1.88;;;18.00;99.90;;;;;;5096914;28;20196;-71
2021/09/10 10:19:08;;;;;;;9.30;1.48;;;18.10;99.90;;;;;;5096315;28;20545;-71
2021/09/10 10:21:51;;;;;;;10.98;2.40;;;18.10;99.90;;;;;;5113733;28;20242;-71
2021/09/10 10:24:54;;;;;;;4.22;2.22;;;18.20;99.90;;;;;;5114104;28;20214;-71
2021/09/10 10:27:45;;;;;;;5.40;1.38;;;18.30;99.90;;;;;;5095224;28;20703;-71
2021/09/10 10:30:19;;;;;;;1.30;1.20;;;18.60;99.90;;;;;;5102185;28;20284;-71
2021/09/10 10:32:52;;;;;;;4.63;2.00;;;18.70;99.90;;;;;;5115213;28;20249;-71
2021/09/10 10:35:41;;;;;;;1.70;1.55;;;18.80;99.90;;;;;;5115388;28;20282;-71
2021/09/10 10:38:11;;;;;;;1.02;0.93;;;18.80;99.90;;;;;;5115062;28;20225;-71
2021/09/10 10:40:46;;;;;;;1.23;1.13;;;18.60;99.90;;;;;;5115914;27;20226;-71
2021/09/10 10:43:18;;;;;;;3.05;1.92;;;18.40;99.90;;;;;;5096758;28;20249;-71
2021/09/10 10:45:44;;;;;;;0.80;0.80;;;18.20;99.90;;;;;;5113559;28;20252;-70
2021/09/10 10:48:34;;;;;;;1.52;1.40;;;18.10;99.90;;;;;;5113408;28;20207;-71
2021/09/10 10:51:03;;;;;;;2.28;1.20;;;18.10;99.90;;;;;;5095236;28;20246;-71
2021/09/10 10:53:47;;;;;;;2.42;2.22;;;18.20;99.90;;;;;;5114446;28;20199;-71
2021/09/10 10:56:25;;;;;;;3.10;1.65;;;18.40;99.90;;;;;;5114747;28;20195;-71
2021/09/10 10:59:12;;;;;;;1.65;0.75;;;18.80;99.90;;;;;;5114532;28;20203;-71
2021/09/10 11:02:22;;;;;;;1.80;1.67;;;19.00;99.90;;;;;;5114267;28;20728;-71
2021/09/10 11:04:49;;;;;;;2.95;2.05;;;19.30;99.90;;;;;;5112511;28;20231;-71
2021/09/10 11:07:29;;;;;;;1.20;1.10;;;19.70;99.90;;;;;;5113822;28;20215;-71
2021/09/10 11:10:14;;;;;;;1.73;1.27;;;19.70;99.90;;;;;;5094183;28;20312;-71
2021/09/10 11:12:41;;;;;;;1.35;1.25;;;19.80;99.90;;;;;;5078875;27;20203;-71
2021/09/10 11:15:20;;;;;;;1.65;1.55;;;19.90;99.90;;;;;;5096672;28;20600;-71
2021/09/10 11:17:59;;;;;;;2.83;2.25;;;19.70;99.90;;;;;;5097150;28;20191;-72
2021/09/10 11:20:34;;;;;;;1.60;1.10;;;19.80;99.90;;;;;;5112950;28;20199;-71
2021/09/10 11:23:00;;;;;;;2.05;1.55;;;19.80;99.90;;;;;;5112673;28;20241;-71
2021/09/10 11:25:27;;;;;;;1.00;0.73;;;20.00;99.90;;;;;;5112909;28;20212;-71
2021/09/10 11:27:53;;;;;;;1.58;1.25;;;19.90;99.90;;;;;;5114229;28;20203;-71
2021/09/10 11:30:19;;;;;;;0.82;0.82;;;19.90;99.90;;;;;;5113974;28;20202;-71
2021/09/10 11:32:44;;;;;;;0.93;0.93;;;19.90;99.90;;;;;;5096165;28;20215;-71
2021/09/10 11:35:17;;;;;;;0.88;0.88;;;20.00;99.90;;;;;;5094496;28;20192;-71
2021/09/10 11:37:54;;;;;;;1.23;1.13;;;19.80;99.90;;;;;;5113415;28;20256;-71
2021/09/10 11:40:33;;;;;;;1.15;1.05;;;20.00;99.90;;;;;;5113480;28;20210;-72
2021/09/10 11:43:09;;;;;;;1.05;0.95;;;20.10;99.90;;;;;;5112790;28;20206;-71
2021/09/10 11:45:38;;;;;;;1.23;1.13;;;20.10;99.90;;;;;;5094224;28;20199;-71
2021/09/10 11:48:08;;;;;;;2.10;1.33;;;20.10;99.90;;;;;;5113831;28;20218;-71
2021/09/10 11:50:57;;;;;;;2.00;1.00;;;20.20;99.90;;;;;;5113050;28;20681;-72
2021/09/10 11:53:31;;;;;;;3.90;1.73;;;20.20;99.90;;;;;;5108371;28;20200;-73
2021/09/10 11:56:04;;;;;;;1.95;1.30;;;20.40;99.90;;;;;;5112790;28;20214;-73
2021/09/10 11:58:49;;;;;;;1.75;1.48;;;20.40;99.90;;;;;;5112459;28;20564;-74
2021/09/10 12:01:29;;;;;;;1.40;1.05;;;20.40;99.90;;;;;;5076393;28;20196;-73
2021/09/10 12:03:56;;;;;;;1.10;1.00;;;20.40;99.90;;;;;;5096372;28;20219;-73
2021/09/10 12:06:27;;;;;;;0.63;0.63;;;20.60;99.90;;;;;;5112786;27;20349;-72
2021/09/10 12:09:15;;;;;;;1.52;0.88;;;20.80;99.90;;;;;;5103106;28;20737;-73
2021/09/10 12:11:59;;;;;;;1.23;1.13;;;21.30;99.90;;;;;;5095590;28;20199;-72
2021/09/10 12:14:58;;;;;;;1.17;1.08;;;21.50;99.90;;;;;;5111816;28;20225;-73
2021/09/10 12:17:24;;;;;;;1.58;0.82;;;21.70;99.90;;;;;;5092622;28;20681;-73
2021/09/10 12:20:08;;;;;;;1.38;1.00;;;21.80;99.90;;;;;;5114065;27;20212;-73
2021/09/10 12:22:42;;;;;;;1.25;1.08;;;22.20;99.90;;;;;;5111606;28;20201;-73
2021/09/10 12:25:28;;;;;;;3.22;1.38;;;22.50;99.90;;;;;;5113054;28;20203;-72
2021/09/10 12:28:03;;;;;;;1.38;0.75;;;22.50;99.90;;;;;;5113017;28;20215;-72
2021/09/10 12:30:31;;;;;;;1.75;1.50;;;23.00;99.90;;;;;;5093933;28;20207;-73
2021/09/10 12:32:57;;;;;;;0.57;0.57;;;23.40;99.90;;;;;;5111390;28;20199;-73
2021/09/10 12:35:25;;;;;;;1.88;1.38;;;23.30;99.90;;;;;;5091086;28;20217;-72
2021/09/10 12:38:01;;;;;;;1.05;0.95;;;23.00;99.90;;;;;;5094727;28;20204;-73
2021/09/10 12:40:35;;;;;;;1.33;1.10;;;22.60;99.90;;;;;;5092943;28;20214;-73
2021/09/10 12:43:02;;;;;;;0.85;0.85;;;22.40;99.90;;;;;;5094672;28;20319;-73
2021/09/10 12:45:28;;;;;;;1.77;1.33;;;22.10;99.90;;;;;;5094011;28;20231;-73
2021/09/10 12:47:55;;;;;;;1.20;1.10;;;22.00;99.90;;;;;;5112707;28;20235;-74
2021/09/10 12:50:21;;;;;;;3.80;1.60;;;22.00;99.90;;;;;;5111029;28;20195;-73
2021/09/10 12:52:47;;;;;;;5.45;2.00;;;22.20;99.90;;;;;;5093031;28;20206;-73